Beachburg, Canada
Current Conditions -  °F | °C
As of 3:00 AM on Friday 31 Oct 2014 (Local Time) from CYWA Reporting Station
Clear Clear  
Wind Chill: 30°   Ceiling: Unl
Heat Index: 30°   Visibility: 9mi
Dew Point: 25°   Wind: 2mph
Humidity: 80%   Direction: 240°WSW
Pressure: 30.03"   Gusts: NA
Location:  45.73°N, 76.85°W
Report Text: CYWA 310700Z AUTO 24002KT 9SM CLR M01/M04 A3003 RMK SLP177
Loading
Personal Weather Stations






























Interactive Weather Map
Tropical Storm Tracking
New forecast layout! Learn more

10-Day Weather Forecast

Advertisements
Track Severe Weather on mobile